Tie Siding, WY (82084)

5:49 PM MST on February 07, 2016 (GMT -0700)
WYDOT | | Change Station
CLOSE
Current Station
Personal Weather Station
Location: Tie Siding, WY
Elevation: 8097 ft
Nearby Weather Stations

Elev 8097 ft 41.05 °N, 105.47 °W | Updated 29 minutes ago

Clear
Clear
26.0 °F
Feels Like 9 °F
N
30.0
Wind Variable Wind from West
Gusts 40.0 mph

Today
High -- | Low -- °F
--% Chance of Precip.
Yesterday
High -- | Low -- °F
Precip. -- in
Pressure 30.40 in
Visibility 10.0 miles
Clouds Clear
Windchill 9 °F
Dew Point 17.0 °F
Humidity 69%
Rainfall in
Snow Depth Not available.
7:06 AM 5:25 PM
Waning Crescent, 0% visible
METAR KFEW 072358Z AUTO 35013G22KT 10SM CLR M03/M09 A3029 RMK AO2 PK WND 34028/04 SLP295 T10311089 11010 21031 52010 $
Pressure 30.40 in
Visibility 10.0 miles
Clouds Clear
Windchill 9 °F
Dew Point 17.0 °F
Humidity 69%
Rainfall in
Snow Depth Not available.
7:06 AM 5:25 PM
Waning Crescent, 0% visible
METAR KFEW 072358Z AUTO 35013G22KT 10SM CLR M03/M09 A3029 RMK AO2 PK WND 34028/04 SLP295 T10311089 11010 21031 52010 $

10-Day Weather Forecast

Almanac

Astronomy

Feb. 07, 2016 Rise Set
Actual Time
Civil Twilight
Nautical Twilight
Astronomical Twilight
Moon
Length of Visible Light
Length of Day
Tomorrow will be .
, % of the Moon is Illuminated

Today's Extremes

State Highs State Lows

Community

WunderPhotos

Upload Photos

1,891,339 photos uploaded!

WunderBlog® & News

Nearby

Air Quality

  Air Quality AQ Index Pollutant
Not available.

Snow Depth

Station Depth Elevation

Earthquake Activity

City Distance Mag. Time & Date
Minimum magnitude displayed is 2.5.

Coastal Water Temperatures

Place Temperature

Stations

Nearby Weather Stations

Station Location Temp. Windchill Dew Point Humidity Wind Precip. Elev Updated Type
                   

Watches & Warnings

There are currently no watches in effect.